createdAt,value
2023-02-28T00:03:01.489Z,8.33
2023-02-28T00:08:04.580Z,8.00
2023-02-28T00:13:08.208Z,7.70
2023-02-28T00:18:11.152Z,3.70
2023-02-28T00:23:14.086Z,10.53
2023-02-28T00:28:16.997Z,3.17
2023-02-28T05:31:32.837Z,8.37
2023-02-28T05:36:50.499Z,9.77
2023-02-28T05:41:54.575Z,9.67
2023-02-28T05:47:02.568Z,5.27
2023-02-28T05:52:06.580Z,8.10
2023-02-28T05:57:19.057Z,6.70
2023-02-28T06:02:31.947Z,8.13
2023-02-28T06:07:48.335Z,6.60
2023-02-28T06:12:53.379Z,5.20
2023-02-28T06:17:59.553Z,10.10
2023-02-28T06:23:07.679Z,6.60
2023-02-28T06:28:11.851Z,15.90
2023-02-28T06:33:17.137Z,8.80
2023-02-28T06:38:24.045Z,7.60
2023-02-28T06:43:30.629Z,9.10
2023-02-28T06:48:36.140Z,4.90
2023-02-28T06:53:40.107Z,8.03
2023-02-28T06:58:49.796Z,8.60
2023-02-28T07:03:53.737Z,8.70
2023-02-28T07:09:00.803Z,13.97
2023-02-28T07:14:04.812Z,12.43
2023-02-28T07:19:10.053Z,9.73
2023-02-28T07:24:16.975Z,13.03
2023-02-28T07:29:23.176Z,7.80
2023-02-28T07:34:28.918Z,7.93
2023-02-28T07:39:34.151Z,6.40
2023-02-28T07:44:43.661Z,8.87
2023-02-28T07:49:51.494Z,9.60
2023-02-28T07:54:59.066Z,6.30
2023-02-28T08:00:07.956Z,7.73
2023-02-28T08:05:19.415Z,5.40
2023-02-28T08:10:27.175Z,8.10
2023-02-28T08:15:31.420Z,6.57
2023-02-28T08:20:35.834Z,6.27
2023-02-28T08:25:40.051Z,5.53
2023-02-28T08:30:44.031Z,4.43
2023-02-28T08:35:49.913Z,12.13
2023-02-28T08:41:03.945Z,5.23
2023-02-28T08:46:08.898Z,3.80
2023-02-28T08:51:22.724Z,3.83
2023-02-28T08:56:27.390Z,5.90
2023-02-28T09:01:32.963Z,7.20
2023-02-28T09:06:37.404Z,5.27
2023-02-28T09:11:41.411Z,5.50
2023-02-28T09:16:47.330Z,4.93
2023-02-28T09:21:53.701Z,4.87
2023-02-28T09:27:04.900Z,7.50
2023-02-28T09:32:13.526Z,5.13
2023-02-28T09:37:17.336Z,5.63
2023-02-28T09:42:31.785Z,6.13
2023-02-28T09:47:40.293Z,6.93
2023-02-28T09:52:54.397Z,10.17
2023-02-28T09:58:01.047Z,11.43
2023-02-28T10:03:28.170Z,8.27
2023-02-28T10:08:43.929Z,5.87
2023-02-28T10:13:59.307Z,6.00
2023-02-28T10:19:16.960Z,7.73
2023-02-28T10:24:34.705Z,7.07
2023-02-28T10:29:42.099Z,5.93
2023-02-28T10:34:47.331Z,7.97
2023-02-28T10:39:52.112Z,8.60
2023-02-28T10:45:13.877Z,6.67
2023-02-28T10:50:35.008Z,9.97
2023-02-28T10:55:40.566Z,9.67
2023-02-28T11:00:47.601Z,9.57
2023-02-28T11:05:54.032Z,12.30
2023-02-28T11:11:02.772Z,8.93
2023-02-28T11:16:09.097Z,7.07
2023-02-28T11:21:23.380Z,6.57
2023-02-28T11:26:47.349Z,8.57
2023-02-28T11:32:11.584Z,8.60
2023-02-28T11:37:20.984Z,11.47
2023-02-28T11:42:51.778Z,8.83
2023-02-28T11:48:29.058Z,6.23
2023-02-28T11:54:00.977Z,5.03
2023-02-28T11:59:11.020Z,6.67
2023-02-28T12:04:40.312Z,11.33
2023-02-28T12:10:06.371Z,6.93
2023-02-28T12:15:33.990Z,7.37
2023-02-28T12:20:50.739Z,9.87
2023-02-28T12:26:15.493Z,8.80
2023-02-28T12:31:25.901Z,9.93
2023-02-28T12:36:32.556Z,10.90
2023-02-28T12:41:46.838Z,8.57
2023-02-28T12:46:53.069Z,7.80
2023-02-28T12:51:56.176Z,7.13
2023-02-28T12:57:42.247Z,10.27
2023-02-28T13:03:12.156Z,10.17
2023-02-28T13:08:21.527Z,15.93
2023-02-28T13:13:29.042Z,6.40
2023-02-28T13:18:44.729Z,8.50
2023-02-28T13:24:00.028Z,16.93
2023-02-28T13:29:17.882Z,8.00
2023-02-28T13:34:21.004Z,8.97
2023-02-28T13:39:36.473Z,12.47
2023-02-28T13:45:03.279Z,11.67
2023-02-28T13:50:31.413Z,12.63
2023-02-28T13:55:45.813Z,14.83
2023-02-28T14:01:05.538Z,12.17
2023-02-28T14:06:16.686Z,12.77
2023-02-28T14:11:34.573Z,14.87
2023-02-28T14:16:49.127Z,11.20
2023-02-28T14:22:11.037Z,13.70
2023-02-28T14:28:04.000Z,10.50
2023-02-28T14:33:27.645Z,11.87
2023-02-28T14:38:56.177Z,8.17
2023-02-28T14:44:00.943Z,7.60
2023-02-28T14:49:06.131Z,12.03
2023-02-28T14:54:13.597Z,10.57
2023-02-28T14:59:35.470Z,8.77
2023-02-28T15:04:38.737Z,9.17
2023-02-28T15:09:42.488Z,10.43
2023-02-28T15:14:53.733Z,13.03
2023-02-28T15:20:02.470Z,7.80
2023-02-28T15:25:09.144Z,10.00
2023-02-28T15:30:20.070Z,10.33
2023-02-28T15:35:30.770Z,8.37
2023-02-28T15:40:38.187Z,8.10
2023-02-28T15:45:50.254Z,8.00
2023-02-28T15:51:02.392Z,7.57
2023-02-28T15:56:08.802Z,7.10
2023-02-28T16:01:23.142Z,9.90
2023-02-28T16:06:43.180Z,9.33
2023-02-28T16:11:51.263Z,8.57
2023-02-28T16:16:57.006Z,6.37
2023-02-28T16:22:08.112Z,7.53
2023-02-28T16:27:19.753Z,7.13
2023-02-28T16:32:25.502Z,5.63
2023-02-28T16:37:29.294Z,9.77
2023-02-28T16:42:33.064Z,8.07
2023-02-28T16:47:39.256Z,11.90
2023-02-28T16:52:44.499Z,10.03
2023-02-28T16:57:53.801Z,11.80
2023-02-28T17:03:06.337Z,12.13
2023-02-28T17:08:10.929Z,11.70
2023-02-28T17:13:15.636Z,16.90
2023-02-28T17:18:20.804Z,12.73
2023-02-28T17:23:23.875Z,6.83
2023-02-28T17:28:26.860Z,11.07
2023-02-28T17:33:30.031Z,9.37
2023-02-28T17:38:32.996Z,12.10
2023-02-28T17:43:36.155Z,19.33
2023-02-28T17:48:39.281Z,10.50
2023-02-28T17:53:42.399Z,12.43
2023-02-28T17:58:46.516Z,13.10
2023-02-28T18:03:50.711Z,9.37
2023-02-28T18:08:56.910Z,9.67
2023-02-28T18:14:00.296Z,13.87
2023-02-28T18:19:03.452Z,11.20
2023-02-28T18:24:06.858Z,16.47
2023-02-28T18:29:14.147Z,23.00
2023-02-28T18:34:23.002Z,11.23
2023-02-28T18:39:27.064Z,16.23
2023-02-28T18:44:33.332Z,14.03
2023-02-28T18:49:38.006Z,16.60
2023-02-28T18:54:40.955Z,18.57
2023-02-28T18:59:44.858Z,21.80
2023-02-28T19:04:50.474Z,25.27
2023-02-28T19:09:57.030Z,24.00
2023-02-28T19:15:00.975Z,25.27
2023-02-28T19:20:08.844Z,28.27
2023-02-28T19:25:15.770Z,27.47
2023-02-28T19:30:23.139Z,23.30
2023-02-28T19:35:27.363Z,23.37
2023-02-28T19:40:51.835Z,18.17
2023-02-28T19:45:56.087Z,28.93
2023-02-28T19:51:09.497Z,11.83
2023-02-28T19:56:13.741Z,13.33
2023-02-28T20:01:21.230Z,14.10
2023-02-28T20:06:25.644Z,14.57
2023-02-28T20:11:32.644Z,17.70
2023-02-28T20:16:36.762Z,23.60
2023-02-28T20:21:47.968Z,18.97
2023-02-28T20:26:55.495Z,19.13
2023-02-28T20:32:05.107Z,22.47
2023-02-28T20:37:09.040Z,31.50
2023-02-28T20:42:15.153Z,37.37
2023-02-28T20:47:26.843Z,25.93
2023-02-28T20:52:36.525Z,36.80
2023-02-28T20:57:40.484Z,33.73
2023-02-28T21:02:49.583Z,34.20
2023-02-28T21:07:53.730Z,34.80
2023-02-28T21:13:00.044Z,31.47
2023-02-28T21:18:05.312Z,34.43
2023-02-28T21:23:17.563Z,25.60
2023-02-28T21:28:21.316Z,24.70
2023-02-28T21:33:27.785Z,24.60
2023-02-28T21:38:32.026Z,27.30
2023-02-28T21:43:36.554Z,21.63
2023-02-28T21:48:41.150Z,27.73
2023-02-28T21:53:48.450Z,29.87
2023-02-28T21:59:00.717Z,32.50
2023-02-28T22:04:06.842Z,31.70
2023-02-28T22:09:12.769Z,31.27
2023-02-28T22:14:19.065Z,33.53
2023-02-28T22:19:25.728Z,35.57
2023-02-28T22:24:30.710Z,42.43
2023-02-28T22:29:36.748Z,35.73
2023-02-28T22:34:40.855Z,50.10
2023-02-28T22:39:45.761Z,42.33
2023-02-28T22:44:51.826Z,41.20
2023-02-28T22:49:57.607Z,48.93
2023-02-28T22:55:01.690Z,47.33
2023-02-28T23:00:10.007Z,49.20
2023-02-28T23:05:18.639Z,49.57
2023-02-28T23:10:22.688Z,57.87
2023-02-28T23:15:27.685Z,65.20
2023-02-28T23:20:32.284Z,38.83
2023-02-28T23:25:44.283Z,47.13
2023-02-28T23:30:48.480Z,43.67
2023-02-28T23:35:55.475Z,41.00
2023-02-28T23:40:59.504Z,54.97
2023-02-28T23:46:03.778Z,39.10
2023-02-28T23:51:12.954Z,49.93
2023-02-28T23:56:19.804Z,32.93
